Time;durP1;ratioP1;P1;durP2;ratioP2;P2;SDS_P1;SDS_P2;PMS_P1;PMS_P2;Temp;Humidity;BMP_temperature;BMP_pressure;BME280_temperature;BME280_humidity;BME280_pressure;Samples;Min_cycle;Max_cycle;Signal;HPM_P1;HPM_P2
2021/03/29 00:00:43;;;;;;;2.08;1.98;;;;;;;2.71;76.14;94771.50;5040806;28;20053;-47
2021/03/29 00:03:09;;;;;;;1.38;1.30;;;;;;;2.64;75.97;94765.66;5030356;28;20061;-45
2021/03/29 00:05:34;;;;;;;1.67;1.58;;;;;;;2.54;76.67;94770.41;5042512;28;20063;-47
2021/03/29 00:08:07;;;;;;;7.47;3.65;;;;;;;2.60;77.29;94765.06;5036046;28;20037;-46
2021/03/29 00:10:34;;;;;;;1.02;1.02;;;;;;;2.53;76.82;94768.91;5034481;28;20120;-48
2021/03/29 00:13:01;;;;;;;2.30;2.20;;;;;;;2.57;76.59;94766.00;5042961;28;20060;-46
2021/03/29 00:15:31;;;;;;;0.90;0.82;;;;;;;2.65;76.25;94764.41;5030222;28;20029;-46
2021/03/29 00:17:57;;;;;;;1.60;1.55;;;;;;;2.54;76.28;94751.31;5040654;28;20112;-46
2021/03/29 00:20:25;;;;;;;5.05;2.50;;;;;;;2.57;77.02;94761.31;5038857;28;20135;-43
2021/03/29 00:22:52;;;;;;;1.33;1.30;;;;;;;2.69;76.01;94756.81;5033112;28;20063;-46
2021/03/29 00:25:19;;;;;;;2.17;2.05;;;;;;;2.75;76.27;94758.44;5031554;28;20034;-46
2021/03/29 00:27:45;;;;;;;2.42;2.33;;;;;;;2.88;75.66;94750.75;5034530;28;20072;-45
2021/03/29 00:30:34;;;;;;;1.50;1.40;;;;;;;2.83;75.45;94750.66;5036967;28;20061;-46
2021/03/29 00:33:01;;;;;;;3.05;2.85;;;;;;;2.72;76.02;94751.19;5043902;28;20407;-48
2021/03/29 00:35:28;;;;;;;1.48;1.40;;;;;;;2.75;76.21;94749.50;5029991;28;20112;-47
2021/03/29 00:37:55;;;;;;;2.17;2.08;;;;;;;2.73;75.91;94749.97;5039547;28;20025;-47
2021/03/29 00:40:21;;;;;;;0.20;0.20;;;;;;;2.82;74.41;94749.88;5038588;28;20029;-46
2021/03/29 00:42:49;;;;;;;2.53;1.35;;;;;;;2.84;74.00;94752.91;5033040;28;20045;-44
2021/03/29 00:45:18;;;;;;;0.80;0.80;;;;;;;2.73;74.43;94757.41;5042651;28;20025;-48
2021/03/29 00:47:43;;;;;;;1.00;1.00;;;;;;;2.29;75.06;94738.16;5033354;28;20517;-45
2021/03/29 00:50:14;;;;;;;1.42;1.42;;;;;;;1.98;76.82;94754.06;5038338;28;20296;-46
2021/03/29 00:52:41;;;;;;;1.65;1.52;;;;;;;2.01;77.29;94753.94;5041035;28;20417;-45
2021/03/29 00:55:10;;;;;;;0.70;0.70;;;;;;;1.97;77.71;94752.59;5036791;28;20021;-44
2021/03/29 00:57:38;;;;;;;2.13;2.03;;;;;;;1.77;78.44;94761.28;5030790;28;20031;-44
2021/03/29 01:00:15;;;;;;;4.28;1.10;;;;;;;1.69;78.51;94751.94;5038946;28;20033;-45
2021/03/29 01:02:40;;;;;;;0.20;0.20;;;;;;;1.57;78.84;94752.13;5040813;28;20043;-46
2021/03/29 01:05:14;;;;;;;0.82;0.82;;;;;;;1.78;78.47;94751.13;5030845;28;20030;-45
2021/03/29 01:07:39;;;;;;;0.82;0.55;;;;;;;1.61;79.02;94752.72;5042155;28;20028;-47
2021/03/29 01:10:05;;;;;;;0.30;0.30;;;;;;;1.60;78.98;94732.94;5035896;28;20472;-47
2021/03/29 01:12:31;;;;;;;1.15;0.88;;;;;;;1.65;78.63;94753.31;5035147;28;20036;-46
2021/03/29 01:14:56;;;;;;;0.95;0.80;;;;;;;1.30;79.37;94726.50;5043021;28;20176;-46
2021/03/29 01:17:24;;;;;;;0.50;0.50;;;;;;;1.73;79.24;94757.22;5030780;28;20033;-48
2021/03/29 01:20:08;;;;;;;0.30;0.30;;;;;;;1.73;79.29;94754.50;5039315;28;20108;-49
2021/03/29 01:22:45;;;;;;;0.65;0.65;;;;;;;1.86;79.31;94741.44;5038497;28;20097;-46
2021/03/29 01:25:24;;;;;;;0.30;0.30;;;;;;;1.62;80.01;94741.38;5044536;28;20037;-47
2021/03/29 01:27:57;;;;;;;0.38;0.38;;;;;;;1.77;79.91;94741.47;5032344;28;20021;-49
2021/03/29 01:30:23;;;;;;;0.30;0.30;;;;;;;1.82;79.54;94736.13;5034795;28;20044;-45
2021/03/29 01:32:49;;;;;;;0.38;0.38;;;;;;;1.91;79.52;94738.81;5041558;28;20033;-45
2021/03/29 01:35:27;;;;;;;0.35;0.35;;;;;;;1.97;78.76;94744.41;5029196;28;20034;-46
2021/03/29 01:37:53;;;;;;;0.55;0.50;;;;;;;1.74;79.37;94736.94;5040478;28;20037;-44
2021/03/29 01:40:20;;;;;;;0.20;0.20;;;;;;;1.89;79.04;94741.25;5029472;28;20405;-45
2021/03/29 01:42:47;;;;;;;0.40;0.40;;;;;;;2.00;79.16;94732.56;5044587;28;20029;-44
2021/03/29 01:45:13;;;;;;;2.35;1.85;;;;;;;2.03;79.07;94748.00;5047662;28;20017;-46
2021/03/29 01:47:39;;;;;;;0.40;0.40;;;;;;;1.94;78.44;94734.44;5035528;28;20425;-49
2021/03/29 01:50:07;;;;;;;0.45;0.45;;;;;;;2.00;78.76;94741.50;5050275;27;20115;-48
2021/03/29 01:52:33;;;;;;;0.30;0.30;;;;;;;2.00;78.25;94746.19;5037660;28;20108;-46
2021/03/29 01:55:00;;;;;;;0.60;0.60;;;;;;;2.03;77.60;94739.84;5040261;28;20173;-46
2021/03/29 01:57:26;;;;;;;0.82;0.82;;;;;;;1.88;78.74;94741.72;5039977;28;20029;-46
2021/03/29 01:59:52;;;;;;;2.47;1.15;;;;;;;2.00;78.59;94746.97;5039290;28;20429;-48
2021/03/29 02:02:17;;;;;;;1.73;1.65;;;;;;;1.92;78.89;94742.31;5048121;28;20501;-49
2021/03/29 02:04:43;;;;;;;0.40;0.40;;;;;;;1.99;79.52;94741.97;5048836;28;20017;-51
2021/03/29 02:07:09;;;;;;;1.40;1.30;;;;;;;2.03;78.51;94750.72;5032473;28;20021;-52
2021/03/29 02:09:35;;;;;;;3.63;2.50;;;;;;;2.07;78.77;94746.63;5044485;28;20063;-52
2021/03/29 02:12:04;;;;;;;0.43;0.38;;;;;;;2.22;77.48;94747.44;5028828;28;20029;-51
2021/03/29 02:14:30;;;;;;;1.30;1.30;;;;;;;2.18;77.75;94746.88;5029949;28;20030;-52
2021/03/29 02:16:56;;;;;;;0.88;0.88;;;;;;;2.12;76.92;94742.50;5028813;28;20059;-51
2021/03/29 02:19:23;;;;;;;1.55;1.45;;;;;;;2.15;77.59;94747.03;5030022;28;20029;-49
2021/03/29 02:21:49;;;;;;;3.53;2.05;;;;;;;2.01;77.94;94751.19;5035542;28;20078;-48
2021/03/29 02:24:15;;;;;;;3.10;2.70;;;;;;;2.07;77.64;94748.59;5048433;28;20507;-53
2021/03/29 02:26:42;;;;;;;2.47;2.28;;;;;;;2.14;76.93;94743.53;5034882;28;20029;-48
2021/03/29 02:29:08;;;;;;;1.58;1.48;;;;;;;2.09;77.11;94755.09;5045732;28;20498;-47
2021/03/29 02:31:33;;;;;;;1.33;1.33;;;;;;;2.13;77.10;94742.03;5049640;28;20032;-47
2021/03/29 02:34:00;;;;;;;0.73;0.73;;;;;;;2.22;76.73;94749.41;5040496;28;20029;-47
2021/03/29 02:36:26;;;;;;;4.30;2.75;;;;;;;2.26;76.97;94747.25;5041150;28;20077;-49
2021/03/29 02:38:52;;;;;;;2.78;2.20;;;;;;;2.28;77.10;94745.59;5038367;28;20025;-47
2021/03/29 02:41:24;;;;;;;3.05;2.53;;;;;;;2.29;76.54;94738.16;5048292;28;20033;-47
2021/03/29 02:43:49;;;;;;;3.35;3.08;;;;;;;2.11;77.89;94747.19;5042917;28;20505;-48
2021/03/29 02:46:16;;;;;;;1.45;1.27;;;;;;;2.17;78.50;94744.59;5038395;28;20025;-45
2021/03/29 02:48:44;;;;;;;3.78;2.55;;;;;;;2.28;77.58;94745.59;5033859;28;20525;-47
2021/03/29 02:51:14;;;;;;;1.02;1.02;;;;;;;2.27;77.22;94746.06;5044566;28;20017;-48
2021/03/29 02:53:52;;;;;;;1.58;1.35;;;;;;;2.32;78.14;94741.94;5034483;28;20021;-47
2021/03/29 02:56:23;;;;;;;1.67;1.60;;;;;;;2.28;77.19;94750.28;5038848;28;20490;-48
2021/03/29 02:58:54;;;;;;;1.25;1.25;;;;;;;2.22;78.24;94746.69;5043662;28;20827;-47
2021/03/29 03:01:23;;;;;;;1.98;1.88;;;;;;;2.26;77.88;94747.25;5032818;28;20078;-45
2021/03/29 03:03:51;;;;;;;1.05;1.05;;;;;;;2.31;78.47;94738.47;5042733;28;20074;-47
2021/03/29 03:06:19;;;;;;;2.13;1.75;;;;;;;2.20;78.72;94751.84;5039449;28;20017;-46
2021/03/29 03:08:45;;;;;;;1.60;1.53;;;;;;;2.23;78.85;94740.03;5033831;28;20049;-45
2021/03/29 03:11:11;;;;;;;0.80;0.80;;;;;;;2.31;78.51;94738.47;5044262;28;20064;-47
2021/03/29 03:13:37;;;;;;;6.13;2.33;;;;;;;2.15;78.38;94727.94;5033706;28;20028;-48
2021/03/29 03:16:04;;;;;;;1.30;0.90;;;;;;;2.10;78.53;94744.94;5040696;28;20045;-47
2021/03/29 03:18:30;;;;;;;2.63;2.17;;;;;;;2.28;78.69;94733.94;5040973;28;20108;-47
2021/03/29 03:20:55;;;;;;;2.08;1.98;;;;;;;2.45;78.38;94732.28;5033275;28;20525;-47
2021/03/29 03:23:21;;;;;;;2.30;2.08;;;;;;;2.46;78.18;94742.00;5045304;28;20025;-45
2021/03/29 03:25:50;;;;;;;2.80;2.55;;;;;;;2.51;77.63;94746.81;5035103;28;20025;-49
2021/03/29 03:28:17;;;;;;;2.05;1.95;;;;;;;2.57;77.32;94734.03;5038884;28;20025;-49
2021/03/29 03:30:45;;;;;;;1.10;1.10;;;;;;;2.52;78.19;94745.56;5037682;28;20057;-47
2021/03/29 03:33:12;;;;;;;0.60;0.60;;;;;;;2.62;77.96;94738.81;5045267;28;20413;-45
2021/03/29 03:35:39;;;;;;;0.55;0.55;;;;;;;2.69;77.49;94746.66;5033781;28;20018;-46
2021/03/29 03:38:14;;;;;;;2.92;2.72;;;;;;;2.75;77.25;94742.06;5039936;28;20022;-45
2021/03/29 03:40:45;;;;;;;17.42;4.10;;;;;;;2.68;77.48;94742.44;5040904;28;20021;-48
2021/03/29 03:43:12;;;;;;;1.40;1.30;;;;;;;2.68;77.92;94739.72;5030868;28;20632;-50
2021/03/29 03:46:14;;;;;;;1.83;1.73;;;;;;;2.47;78.43;94750.94;5042431;28;20463;-48
2021/03/29 03:48:41;;;;;;;5.70;2.22;;;;;;;2.66;77.87;94744.88;5035042;28;20033;-44
2021/03/29 03:51:07;;;;;;;10.90;2.95;;;;;;;2.69;77.64;94751.34;5030879;28;20056;-44
2021/03/29 03:53:33;;;;;;;1.27;1.25;;;;;;;2.79;77.23;94742.66;5044091;28;20053;-45
2021/03/29 03:55:59;;;;;;;1.50;1.50;;;;;;;2.74;76.90;94743.28;5034946;28;20405;-46
2021/03/29 03:58:25;;;;;;;1.60;1.52;;;;;;;2.68;77.78;94725.31;5036740;28;20050;-45
2021/03/29 04:00:51;;;;;;;1.98;1.88;;;;;;;2.78;76.70;94746.59;5041610;28;20025;-44
2021/03/29 04:03:17;;;;;;;2.17;2.08;;;;;;;2.83;77.44;94731.56;5030712;28;20025;-45
2021/03/29 04:05:43;;;;;;;3.08;2.88;;;;;;;2.66;77.56;94744.13;5042425;28;20082;-45
2021/03/29 04:08:10;;;;;;;2.33;2.05;;;;;;;2.64;77.57;94730.22;5037375;28;20152;-46
2021/03/29 04:13:12;;;;;;;2.45;2.35;;;;;;;2.67;78.76;94727.28;5031756;28;20034;-45
2021/03/29 04:15:37;;;;;;;0.82;0.82;;;;;;;2.76;77.58;94726.47;5043119;28;20490;-44
2021/03/29 04:18:03;;;;;;;1.88;1.83;;;;;;;2.76;78.04;94729.19;5036363;28;20036;-45
2021/03/29 04:20:28;;;;;;;0.45;0.45;;;;;;;2.70;77.65;94731.06;5036068;28;20021;-45
2021/03/29 04:22:54;;;;;;;0.98;0.95;;;;;;;2.74;77.99;94732.38;5043272;28;20549;-46
2021/03/29 04:25:19;;;;;;;1.35;1.27;;;;;;;2.63;77.78;94736.88;5031393;28;20042;-45
2021/03/29 04:27:44;;;;;;;0.63;0.63;;;;;;;2.63;77.90;94731.41;5042010;28;20108;-47
2021/03/29 04:30:12;;;;;;;0.38;0.38;;;;;;;2.79;76.03;94722.81;5038558;28;20029;-46
2021/03/29 04:32:39;;;;;;;0.77;0.77;;;;;;;2.54;76.24;94707.69;5046471;28;20028;-42
2021/03/29 04:35:05;;;;;;;0.30;0.30;;;;;;;2.76;76.42;94732.66;5046912;28;20513;-43
2021/03/29 04:37:31;;;;;;;1.48;1.38;;;;;;;2.67;76.40;94731.97;5036630;28;20032;-46
2021/03/29 04:39:56;;;;;;;0.65;0.65;;;;;;;2.66;75.11;94720.34;5040482;28;20029;-45
2021/03/29 04:42:22;;;;;;;1.25;1.17;;;;;;;2.83;75.33;94745.19;5038051;28;20052;-43
2021/03/29 04:44:47;;;;;;;0.25;0.25;;;;;;;2.75;76.14;94720.25;5036186;28;20513;-44
2021/03/29 04:47:13;;;;;;;2.10;1.90;;;;;;;2.89;75.29;94732.41;5037937;28;20104;-43
2021/03/29 04:49:40;;;;;;;1.23;0.52;;;;;;;2.73;76.67;94736.31;5037613;28;20081;-43
2021/03/29 04:52:06;;;;;;;0.32;0.32;;;;;;;2.68;77.95;94742.44;5037883;28;20471;-43
2021/03/29 04:54:31;;;;;;;2.05;1.92;;;;;;;2.95;78.05;94736.75;5027606;28;20053;-44
2021/03/29 04:56:57;;;;;;;0.40;0.40;;;;;;;3.05;77.25;94749.06;5025837;28;20154;-44
2021/03/29 04:59:22;;;;;;;0.45;0.45;;;;;;;2.93;76.83;94714.66;5026241;28;20060;-43
2021/03/29 05:01:48;;;;;;;0.35;0.35;;;;;;;3.34;76.44;94742.13;5045911;28;20032;-43
2021/03/29 05:04:15;;;;;;;0.20;0.20;;;;;;;3.30;76.36;94747.78;5046398;28;20025;-42
2021/03/29 05:06:40;;;;;;;0.80;0.75;;;;;;;3.19;77.42;94752.28;5046036;28;20107;-42
2021/03/29 05:09:07;;;;;;;0.50;0.50;;;;;;;3.33;76.73;94746.09;5044940;28;20111;-48
2021/03/29 05:11:46;;;;;;;0.70;0.70;;;;;;;3.26;77.42;94741.00;5045365;28;20097;-49
2021/03/29 05:14:15;;;;;;;0.22;0.22;;;;;;;3.12;78.28;94736.31;5039173;28;20022;-46
2021/03/29 05:16:42;;;;;;;0.95;0.95;;;;;;;3.24;77.64;94748.91;5040994;28;20017;-42
2021/03/29 05:19:08;;;;;;;1.05;1.05;;;;;;;3.19;76.33;94727.72;5040064;28;20120;-46
2021/03/29 05:21:34;;;;;;;1.00;1.00;;;;;;;3.09;76.64;94751.63;5043974;28;20507;-44
2021/03/29 05:23:59;;;;;;;0.77;0.77;;;;;;;3.08;76.84;94745.41;5036640;28;20025;-43
2021/03/29 05:26:25;;;;;;;0.40;0.40;;;;;;;3.04;76.97;94728.50;5036077;28;20716;-43
2021/03/29 05:28:51;;;;;;;1.30;1.30;;;;;;;2.98;77.59;94748.69;5049404;28;20033;-44
2021/03/29 05:31:16;;;;;;;1.45;1.02;;;;;;;3.20;76.86;94764.72;5048961;28;20463;-44
2021/03/29 05:33:41;;;;;;;0.20;0.20;;;;;;;3.29;74.72;94732.63;5049074;28;20029;-44
2021/03/29 05:36:12;;;;;;;5.85;2.63;;;;;;;3.55;74.72;94754.69;5034157;28;20025;-45
2021/03/29 05:38:38;;;;;;;12.35;11.25;;;;;;;3.80;75.34;94746.63;5029641;28;20473;-44
2021/03/29 05:41:04;;;;;;;29.23;15.02;;;;;;;3.92;74.56;94758.47;5029156;28;20026;-44
2021/03/29 05:43:30;;;;;;;17.42;11.90;;;;;;;4.18;73.84;94759.34;5029230;28;20398;-43
2021/03/29 05:45:55;;;;;;;15.13;11.80;;;;;;;4.66;72.85;94761.75;5029172;28;20037;-44
2021/03/29 05:48:21;;;;;;;5.30;4.80;;;;;;;4.97;72.62;94759.13;5027863;28;20021;-43
2021/03/29 05:50:46;;;;;;;2.90;2.60;;;;;;;5.47;69.66;94754.94;5028756;28;20050;-43
2021/03/29 05:53:12;;;;;;;2.50;2.40;;;;;;;6.27;66.86;94770.28;5036266;28;20040;-44
2021/03/29 05:55:41;;;;;;;1.50;1.48;;;;;;;6.59;65.39;94770.97;5033262;28;20490;-43
2021/03/29 05:58:29;;;;;;;1.13;1.13;;;;;;;6.60;63.58;94767.75;5044574;28;20057;-44
2021/03/29 06:00:55;;;;;;;1.35;1.15;;;;;;;6.75;63.34;94764.84;5040479;28;20041;-46
2021/03/29 06:03:35;;;;;;;0.43;0.43;;;;;;;7.31;60.47;94774.78;5029605;28;20405;-44
2021/03/29 06:06:13;;;;;;;1.05;1.02;;;;;;;7.97;59.27;94771.38;5036800;28;20112;-44
2021/03/29 06:08:43;;;;;;;0.88;0.88;;;;;;;8.87;57.34;94767.25;5038865;28;20028;-43
2021/03/29 06:22:06;;;;;;;0.45;0.43;;;;;;;13.90;39.54;94756.59;5126439;27;21194;-45
2021/03/29 06:24:55;;;;;;;1.83;0.70;;;;;;;14.32;36.81;94755.34;5115855;27;20037;-45
2021/03/29 06:27:22;;;;;;;0.85;0.40;;;;;;;14.43;35.93;94755.09;5124796;27;20374;-46
2021/03/29 06:29:48;;;;;;;0.93;0.88;;;;;;;15.10;36.93;94746.50;5111960;28;20024;-47
2021/03/29 06:32:18;;;;;;;0.57;0.57;;;;;;;15.62;32.99;94750.13;5122648;27;20038;-46
2021/03/29 06:34:43;;;;;;;0.10;0.10;;;;;;;15.66;31.86;94754.06;5116058;28;20462;-46
2021/03/29 06:37:09;;;;;;;0.52;0.52;;;;;;;16.19;31.62;94754.22;5118439;27;20032;-45
2021/03/29 06:39:37;;;;;;;2.42;1.38;;;;;;;17.06;29.71;94759.47;5115784;28;20026;-44
2021/03/29 06:42:03;;;;;;;1.20;1.02;;;;;;;17.74;28.10;94760.06;5126250;27;20054;-44
2021/03/29 06:44:31;;;;;;;2.28;1.70;;;;;;;18.50;27.66;94756.88;5126507;27;20100;-44
2021/03/29 06:47:13;;;;;;;0.32;0.30;;;;;;;18.57;25.69;94750.50;5124414;27;20020;-46
2021/03/29 06:49:44;;;;;;;0.20;0.20;;;;;;;19.66;25.39;94751.97;5123285;27;20071;-45
2021/03/29 06:52:28;;;;;;;1.33;1.23;;;;;;;19.52;25.36;94754.34;5125058;27;20027;-46
2021/03/29 06:54:55;;;;;;;1.95;1.50;;;;;;;20.21;23.85;94759.88;5116070;27;20114;-45
2021/03/29 06:57:30;;;;;;;0.85;0.30;;;;;;;20.62;22.14;94733.66;5124064;27;20031;-45
2021/03/29 06:59:56;;;;;;;0.70;0.47;;;;;;;21.42;23.50;94764.34;5121475;27;20016;-45
2021/03/29 07:02:39;;;;;;;0.32;0.32;;;;;;;21.29;22.35;94756.34;5124697;27;20023;-47
2021/03/29 07:05:06;;;;;;;0.68;0.38;;;;;;;21.92;23.42;94767.38;5126913;27;20525;-45
2021/03/29 07:07:32;;;;;;;0.20;0.20;;;;;;;20.95;22.11;94762.16;5119868;27;20080;-45
2021/03/29 07:09:59;;;;;;;0.28;0.28;;;;;;;21.02;22.81;94761.28;5121479;27;20012;-47
2021/03/29 07:12:27;;;;;;;0.38;0.38;;;;;;;20.80;21.60;94757.53;5119337;27;20023;-45
2021/03/29 07:14:55;;;;;;;0.20;0.20;;;;;;;20.82;22.17;94759.75;5111882;27;20035;-46
2021/03/29 07:17:20;;;;;;;0.28;0.28;;;;;;;20.84;21.88;94757.09;5113051;28;20031;-47
2021/03/29 07:19:46;;;;;;;0.60;0.60;;;;;;;21.42;20.97;94763.63;5108530;28;20036;-47
2021/03/29 07:22:13;;;;;;;1.23;0.88;;;;;;;22.27;20.94;94771.34;5107960;28;20028;-45
2021/03/29 07:24:38;;;;;;;0.43;0.43;;;;;;;22.89;20.18;94757.41;5100308;28;20028;-48
2021/03/29 07:27:06;;;;;;;0.40;0.20;;;;;;;22.98;19.52;94765.06;5092138;28;20488;-45
2021/03/29 07:29:33;;;;;;;1.70;1.60;;;;;;;23.16;19.13;94755.81;5110622;28;20024;-46
2021/03/29 07:32:05;;;;;;;0.32;0.32;;;;;;;21.54;20.25;94778.59;5103473;28;20028;-45
2021/03/29 07:34:51;;;;;;;0.47;0.47;;;;;;;21.18;19.99;94762.53;5090570;28;20031;-45
2021/03/29 07:37:40;;;;;;;0.20;0.20;;;;;;;19.33;21.69;94770.19;5100402;28;20032;-45
2021/03/29 07:40:08;;;;;;;;;;;;;;;19.08;22.43;94772.31;5108493;28;20038;-45
2021/03/29 07:42:38;;;;;;;1.13;1.03;;;;;;;19.51;22.78;94768.94;5112544;28;20288;-44
2021/03/29 07:45:10;;;;;;;1.10;1.10;;;;;;;18.44;22.24;94773.13;5106972;28;20318;-43
2021/03/29 07:47:54;;;;;;;1.17;1.08;;;;;;;17.34;25.05;94760.00;5112627;28;20027;-44
2021/03/29 07:50:42;;;;;;;0.60;0.60;;;;;;;16.83;26.21;94775.50;5106302;28;20109;-46
2021/03/29 07:53:20;;;;;;;0.32;0.32;;;;;;;17.10;25.68;94774.53;5106512;28;20042;-44
2021/03/29 07:55:51;;;;;;;0.32;0.32;;;;;;;17.51;24.71;94767.03;5110968;28;20031;-46
2021/03/29 07:58:21;;;;;;;0.50;0.50;;;;;;;17.72;23.78;94770.31;5106406;28;20035;-49
2021/03/29 08:00:48;;;;;;;0.45;0.45;;;;;;;16.97;26.15;94774.75;5104635;28;20065;-44
2021/03/29 08:03:14;;;;;;;0.40;0.40;;;;;;;16.60;26.66;94781.06;5096088;28;20413;-47
2021/03/29 08:05:40;;;;;;;0.20;0.20;;;;;;;15.95;27.64;94779.78;5101157;28;20031;-48
2021/03/29 08:08:26;;;;;;;0.57;0.55;;;;;;;16.21;27.30;94782.28;5098524;28;20034;-48
2021/03/29 08:11:13;;;;;;;0.43;0.43;;;;;;;16.67;27.09;94775.47;5098660;28;20506;-46
2021/03/29 08:13:50;;;;;;;1.98;0.65;;;;;;;16.46;27.57;94776.91;5091371;28;20488;-47
2021/03/29 08:16:21;;;;;;;0.68;0.68;;;;;;;16.42;26.50;94774.50;5091737;28;20449;-48
2021/03/29 08:19:06;;;;;;;0.63;0.60;;;;;;;16.63;26.29;94772.31;5094916;28;20700;-51
2021/03/29 08:21:54;;;;;;;1.67;0.93;;;;;;;17.44;27.38;94776.88;5091017;28;20067;-52
2021/03/29 08:24:39;;;;;;;0.55;0.55;;;;;;;18.13;26.22;94778.16;5099741;28;20039;-44
2021/03/29 08:27:14;;;;;;;0.57;0.57;;;;;;;20.20;25.41;94772.41;5104937;28;20034;-44
2021/03/29 08:29:42;;;;;;;1.15;1.15;;;;;;;21.50;21.48;94767.03;5110883;28;20019;-45
2021/03/29 08:32:09;;;;;;;0.10;0.10;;;;;;;22.10;18.49;94771.53;5104751;28;20583;-45
2021/03/29 08:34:54;;;;;;;0.55;0.50;;;;;;;22.80;21.91;94773.03;5109132;28;20028;-44
2021/03/29 08:37:23;;;;;;;0.25;0.25;;;;;;;23.34;20.56;94771.16;5110638;27;20066;-48
2021/03/29 08:39:50;;;;;;;0.17;0.17;;;;;;;23.32;19.91;94765.34;5110583;28;20034;-45
2021/03/29 08:42:17;;;;;;;0.35;0.35;;;;;;;23.41;18.52;94763.09;5093809;28;20028;-46
2021/03/29 08:44:45;;;;;;;0.45;0.45;;;;;;;23.77;18.73;94762.69;5110978;28;20028;-47
2021/03/29 08:47:15;;;;;;;0.15;0.15;;;;;;;24.74;17.55;94758.38;5110964;28;20028;-45
2021/03/29 08:49:41;;;;;;;0.47;0.47;;;;;;;24.58;18.19;94760.22;5111156;28;20106;-45
2021/03/29 08:52:07;;;;;;;0.30;0.30;;;;;;;24.96;18.47;94759.03;5111049;28;20491;-48
2021/03/29 08:54:33;;;;;;;0.45;0.45;;;;;;;24.98;18.24;94750.69;5110469;28;20098;-46
2021/03/29 08:57:04;;;;;;;0.68;0.68;;;;;;;25.93;18.96;94748.59;5105352;28;20773;-45
2021/03/29 08:59:31;;;;;;;0.93;0.93;;;;;;;25.87;16.60;94756.75;5104360;28;20008;-44
2021/03/29 09:01:57;;;;;;;2.45;0.98;;;;;;;26.31;16.92;94748.00;5105812;28;20028;-44
2021/03/29 09:04:23;;;;;;;0.85;0.85;;;;;;;26.47;16.58;94760.22;5110011;28;20031;-45
2021/03/29 09:06:53;;;;;;;1.30;1.20;;;;;;;26.55;17.05;94757.09;5101315;28;20046;-47
2021/03/29 09:09:21;;;;;;;2.05;1.58;;;;;;;25.86;16.28;94756.00;5102629;27;20103;-46
2021/03/29 09:11:47;;;;;;;1.17;1.08;;;;;;;24.97;17.42;94749.22;5098715;28;20110;-44
2021/03/29 09:14:17;;;;;;;0.10;0.10;;;;;;;24.57;16.74;94758.72;5109102;28;20038;-45
2021/03/29 09:16:46;;;;;;;0.32;0.32;;;;;;;25.08;16.74;94749.22;5109875;28;20039;-46
2021/03/29 09:19:20;;;;;;;0.10;0.10;;;;;;;24.45;17.52;94752.31;5109225;27;20517;-45
2021/03/29 09:21:55;;;;;;;1.17;0.73;;;;;;;24.44;19.87;94750.84;5108038;28;20484;-46
2021/03/29 09:24:23;;;;;;;0.65;0.35;;;;;;;23.68;17.30;94752.22;5107388;28;20465;-47
2021/03/29 09:27:10;;;;;;;0.47;0.47;;;;;;;24.52;18.30;94751.34;5110926;28;20511;-48
2021/03/29 09:29:39;;;;;;;3.28;0.80;;;;;;;23.92;17.81;94748.94;5110205;28;20038;-46
2021/03/29 09:32:09;;;;;;;0.20;0.20;;;;;;;23.30;17.30;94753.94;5107294;28;20020;-48
2021/03/29 09:34:35;;;;;;;1.33;1.23;;;;;;;23.46;19.03;94747.94;5109820;28;20031;-45
2021/03/29 09:37:01;;;;;;;0.13;0.13;;;;;;;22.86;19.71;94742.47;5109860;28;20059;-44
2021/03/29 09:39:31;;;;;;;0.40;0.40;;;;;;;23.44;19.94;94734.44;5111715;28;20046;-45
2021/03/29 09:41:57;;;;;;;0.75;0.20;;;;;;;23.09;18.08;94727.81;5091943;28;20032;-44
2021/03/29 09:44:30;;;;;;;0.22;0.22;;;;;;;23.46;18.95;94742.28;5090837;28;20024;-43
2021/03/29 09:46:58;;;;;;;0.25;0.25;;;;;;;23.73;19.18;94734.97;5091049;28;20043;-49
2021/03/29 09:49:24;;;;;;;0.13;0.13;;;;;;;24.13;18.64;94736.16;5091999;28;20020;-47
2021/03/29 09:51:51;;;;;;;0.68;0.68;;;;;;;23.84;18.13;94716.63;5091062;28;20036;-44
2021/03/29 09:54:27;;;;;;;3.30;0.77;;;;;;;23.52;17.41;94728.63;5090791;28;20396;-46
2021/03/29 09:56:53;;;;;;;0.13;0.13;;;;;;;22.97;19.85;94722.09;5090922;28;20749;-44
2021/03/29 09:59:45;;;;;;;0.25;0.25;;;;;;;23.08;19.33;94731.97;5089578;28;20123;-46
2021/03/29 10:02:17;;;;;;;0.45;0.45;;;;;;;23.44;18.40;94728.81;5099664;28;20030;-46
2021/03/29 10:04:44;;;;;;;0.98;0.93;;;;;;;24.06;16.86;94726.56;5110696;28;20031;-47
2021/03/29 10:07:17;;;;;;;0.10;0.10;;;;;;;22.95;19.18;94727.59;5111025;28;20095;-45
2021/03/29 10:09:47;;;;;;;0.50;0.38;;;;;;;23.18;19.13;94718.56;5105366;28;20032;-44
2021/03/29 10:12:23;;;;;;;0.22;0.22;;;;;;;22.35;17.70;94720.53;5110981;28;20115;-45
2021/03/29 10:14:49;;;;;;;0.47;0.47;;;;;;;21.08;18.68;94726.00;5111195;28;20023;-44
2021/03/29 10:17:16;;;;;;;0.20;0.20;;;;;;;20.78;18.87;94720.13;5111092;28;20045;-45
2021/03/29 10:19:42;;;;;;;0.32;0.25;;;;;;;21.24;20.94;94723.69;5101970;28;20036;-43
2021/03/29 10:22:19;;;;;;;0.20;0.20;;;;;;;21.80;19.47;94707.44;5090716;28;20107;-46
2021/03/29 10:25:04;;;;;;;0.13;0.13;;;;;;;22.40;19.34;94717.41;5090599;28;20024;-44
2021/03/29 10:27:57;;;;;;;1.42;1.33;;;;;;;22.91;17.93;94704.03;5101055;28;20065;-45
2021/03/29 10:30:28;;;;;;;0.30;0.30;;;;;;;22.48;18.67;94712.34;5104676;28;20042;-45
2021/03/29 10:32:55;;;;;;;0.15;0.15;;;;;;;22.74;18.05;94718.34;5106603;28;20035;-44
2021/03/29 10:35:23;;;;;;;0.22;0.20;;;;;;;22.21;21.17;94703.41;5101388;28;20066;-44
2021/03/29 10:37:50;;;;;;;0.22;0.22;;;;;;;22.40;20.33;94694.88;5090422;28;20031;-44
2021/03/29 10:40:16;;;;;;;1.75;0.95;;;;;;;23.20;20.16;94710.25;5103540;28;20076;-44
2021/03/29 10:42:42;;;;;;;0.17;0.17;;;;;;;23.76;18.38;94708.38;5110764;28;20099;-45
2021/03/29 10:45:10;;;;;;;0.50;0.47;;;;;;;23.77;17.64;94698.59;5099975;28;20517;-45
2021/03/29 10:47:36;;;;;;;0.60;0.60;;;;;;;23.96;17.58;94689.19;5092545;28;20024;-45
2021/03/29 10:50:07;;;;;;;0.93;0.40;;;;;;;24.33;17.30;94693.00;5090234;28;20331;-45
2021/03/29 10:52:32;;;;;;;0.55;0.30;;;;;;;24.34;17.13;94693.75;5090462;28;20024;-44
2021/03/29 10:54:58;;;;;;;0.52;0.52;;;;;;;24.19;17.41;94689.28;5090259;28;20530;-44
2021/03/29 10:57:23;;;;;;;1.45;0.90;;;;;;;23.77;17.44;94680.91;5092596;28;20024;-47
2021/03/29 10:59:48;;;;;;;0.60;0.60;;;;;;;24.08;17.33;94675.91;5095272;28;20492;-47
2021/03/29 11:02:14;;;;;;;1.00;1.00;;;;;;;23.83;15.26;94673.59;5106972;28;20491;-49
2021/03/29 11:04:40;;;;;;;1.00;0.77;;;;;;;23.60;15.98;94667.13;5113654;28;20045;-44
2021/03/29 11:07:05;;;;;;;0.10;0.10;;;;;;;23.38;16.39;94657.94;5114484;28;20031;-47
2021/03/29 11:09:31;;;;;;;0.25;0.25;;;;;;;23.03;16.73;94659.78;5109747;28;20519;-49
2021/03/29 11:11:56;;;;;;;0.10;0.10;;;;;;;22.72;15.61;94651.38;5111011;28;20058;-47
2021/03/29 11:14:22;;;;;;;0.10;0.10;;;;;;;21.68;17.09;94656.69;5114154;28;20027;-45
2021/03/29 11:16:51;;;;;;;0.45;0.45;;;;;;;21.31;18.87;94649.75;5114501;28;20019;-44
2021/03/29 11:19:17;;;;;;;0.25;0.25;;;;;;;21.53;19.07;94654.19;5096259;28;20393;-47
2021/03/29 11:21:43;;;;;;;2.78;1.52;;;;;;;21.91;18.66;94639.38;5093048;28;20052;-44
2021/03/29 11:24:10;;;;;;;0.85;0.85;;;;;;;21.81;18.60;94642.16;5098628;28;20573;-43
2021/03/29 11:26:35;;;;;;;0.38;0.38;;;;;;;21.20;17.32;94641.94;5092619;28;20089;-45
2021/03/29 11:29:01;;;;;;;0.43;0.40;;;;;;;20.93;18.02;94630.78;5106993;28;20023;-49
2021/03/29 11:31:27;;;;;;;0.43;0.43;;;;;;;20.58;20.01;94612.69;5112829;28;20020;-46
2021/03/29 11:33:52;;;;;;;0.20;0.20;;;;;;;19.74;17.91;94625.75;5113837;28;20036;-45
2021/03/29 11:36:18;;;;;;;1.45;1.35;;;;;;;20.28;21.90;94627.22;5113876;28;20384;-45
2021/03/29 11:38:44;;;;;;;0.30;0.30;;;;;;;20.00;19.84;94627.81;5113772;28;20061;-48
2021/03/29 11:41:09;;;;;;;0.77;0.77;;;;;;;20.21;19.19;94612.00;5112368;28;20085;-45
2021/03/29 11:43:35;;;;;;;1.08;1.00;;;;;;;20.01;21.65;94624.41;5113667;28;20027;-45
2021/03/29 11:46:00;;;;;;;0.73;0.73;;;;;;;19.91;19.94;94604.00;5103468;28;20024;-46
2021/03/29 11:48:26;;;;;;;0.25;0.25;;;;;;;20.27;18.62;94608.94;5103803;28;20020;-46
2021/03/29 11:50:51;;;;;;;0.45;0.45;;;;;;;20.33;21.58;94612.19;5104145;28;20012;-49
2021/03/29 11:53:18;;;;;;;0.57;0.57;;;;;;;20.35;19.85;94598.31;5103173;28;20024;-43
2021/03/29 11:55:45;;;;;;;0.10;0.10;;;;;;;20.18;17.92;94596.28;5109948;28;20043;-44
2021/03/29 11:58:13;;;;;;;0.10;0.10;;;;;;;19.98;19.45;94594.75;5111818;28;20032;-43